Aviation Digital Data Service (ADDS)

Output produced by METARs form (1412 UTC 24 April 2014)
found at http://aviationweather.gov/adds/metars/
 
KATL 241353Z 2414/2518 09010KT P6SM SKC 
     FM241600 12008KT P6SM SCT060 
     FM250000 16006KT P6SM BKN060 
     FM250900 20006KT P6SM BKN050 
     FM251200 23010KT P6SM SCT025 BKN050 
     FM251500 23010G20KT P6SM BKN025